Weather observations for the past three days for
Chariton
Imperial (Metric)
Date Time (cdt) Wind (mph) Vis. (mi.) Weather Sky Cond. Temperature (ºF) Relative Humidity Wind Chill (°F) Heat Index (°F) Pressure Precipitation (in)
Air Dwpt 6 hour altimeter (in) sea level (mb) 1 hr 3 hr 6 hr
Max. Min.
01 15:35 SW 14 10.00 Fair CLR 95 68 41% 100 29.92 0.0
01 15:15 S 12 10.00 Fair CLR 95 69.8 44% 101 29.93 0.0
01 14:55 SW 14 9.00 Fair CLR 95 68 41% 100 29.93 0.0
01 14:35 SW 10 G 20 10.00 Fair CLR 95 68 41% 100 29.94 0.0
01 14:15 SW 9 G 17 9.00 Fair CLR 93.2 68 44% 98 29.95 0.0
01 13:55 S 12 G 18 9.00 Fair CLR 93.2 68 44% 98 29.95 0.0
01 13:35 SW 10 G 17 10.00 Fair CLR 93.2 68 44% 98 29.96 0.0
01 13:15 SW 9 G 16 10.00 Fair CLR 93.2 68 44% 98 29.96 0.0
01 12:55 S 10 10.00 Fair CLR 91.4 68 46% 96 29.96 0.0
01 12:35 SW 13 G 18 0.00 Fair CLR 91.4 68 46% 96 29.97 0.0
01 12:15 SW 9 G 17 10.00 Fair CLR 89.6 68 49% 93 29.97 0.0
01 11:55 SW 13 10.00 Fair CLR 89.6 68 49% 93 29.97 0.0
01 11:35 SW 12 10.00 Fair CLR 87.8 68 52% 91 29.97 0.0
01 11:15 SW 10 G 17 10.00 Fair CLR 87.8 68 52% 91 29.98 0.0
01 10:55 SW 9 10.00 Fair CLR 86 68 55% 89 29.98 0.0
01 10:35 SW 10 10.00 Fair CLR 86 68 55% 89 29.98 0.0
01 10:15 SW 12 9.00 Fair CLR 84.2 68 58% 87 29.98 0.0
01 09:55 SW 10 9.00 Fair CLR 82.4 68 62% 85 29.98 0.0
01 09:35 S 7 10.00 Fair CLR 80.6 68 66% 83 29.98 0.0
01 09:15 S 9 7.00 Fair CLR 78.8 68 70% 81 29.98 0.0
01 08:55 S 8 9.00 Fair CLR 77 68 74% 79 29.98 0.0
01 08:35 S 8 9.00 Fair CLR 77 69.8 79% 79 29.98 0.0
01 08:15 S 9 9.00 Fair CLR 75.2 69.8 83% 75 29.98 0.0
01 07:55 S 6 6.00 Fair with Haze CLR 73.4 69.8 89% 29.98 0.0
01 07:35 SW 5 10.00 Fair CLR 73.4 68 83% 29.97 0.0
01 07:15 S 5 9.00 Fair CLR 71.6 68 88% 29.97 0.0
01 06:55 S 3 9.00 Fair CLR 73.4 68 83% 29.97 0.0
01 06:35 SW 3 10.00 Fair CLR 73.4 68 83% 29.96 0.0
01 06:15 SW 5 10.00 Partly Cloudy SCT120 75.2 68 78% 76 29.96 0.0
01 05:55 Calm 10.00 Mostly Cloudy BKN120 73.4 69.8 89% 29.96 0.0
01 05:35 Calm 10.00 A Few Clouds FEW120 71.6 69.8 94% 29.96 0.0
01 05:15 S 3 10.00 Fair CLR 71.6 69.8 94% 29.95 0.0
01 04:55 Calm 10.00 A Few Clouds FEW120 75.2 69.8 83% 75 29.95 0.0
01 04:35 Calm 10.00 Partly Cloudy SCT120 75.2 69.8 83% 75 29.94 0.0
01 04:15 S 3 10.00 Fair CLR 73.4 71.6 94% 29.95 0.0
01 03:55 S 5 10.00 Fair CLR 73.4 69.8 89% 29.95 0.0
01 03:35 SW 5 10.00 Fair CLR 73.4 71.6 94% 29.95 0.0
01 03:15 S 6 10.00 Fair CLR 75.2 71.6 89% 75 29.94 0.0
01 02:55 S 6 10.00 Fair CLR 75.2 71.6 89% 75 29.95 0.0
01 02:35 SW 6 10.00 A Few Clouds FEW036 75.2 71.6 89% 75 29.95 0.0
01 02:15 S 6 10.00 A Few Clouds FEW038 75.2 71.6 89% 75 29.95 0.0
01 01:55 S 6 10.00 A Few Clouds FEW038 FEW120 73.4 71.6 94% 29.96 0.0
01 01:35 SW 5 10.00 Fair CLR 77 71.6 83% 78 29.96 0.0
01 01:15 SW 3 10.00 Fair CLR 77 71.6 83% 78 29.97 0.0
01 00:55 S 6 10.00 Fair CLR 75.2 71.6 89% 75 29.96 0.0
01 00:35 S 6 10.00 Fair CLR 77 73.4 89% 78 29.96 0.0
01 00:15 SW 5 10.00 Fair CLR 77 73.4 89% 78 29.95 0.0
31 23:55 SW 5 10.00 Fair CLR 77 73.4 89% 78 29.95 0.0
31 23:35 S 5 10.00 Fair CLR 77 73.4 89% 78 29.94 0.0
31 23:15 SW 6 10.00 Fair CLR 78.8 73.4 84% 82 29.94 0.0
31 22:55 S 6 10.00 Fair CLR 77 73.4 89% 78 29.94 0.0
31 22:35 SW 5 10.00 Fair CLR 78.8 73.4 84% 82 29.94 0.0
31 22:15 SW 5 10.00 Fair CLR 78.8 73.4 84% 82 29.94 0.0
31 21:55 SW 6 10.00 A Few Clouds FEW120 78.8 75.2 89% 82 29.94 0.0
31 21:35 SW 3 10.00 Overcast OVC120 80.6 75.2 84% 86 29.94 0.0
31 21:15 S 5 10.00 Mostly Cloudy BKN120 80.6 75.2 84% 86 29.93 0.0
31 20:55 SW 6 9.00 Fair CLR 80.6 75.2 84% 86 29.93 0.0
31 20:35 S 6 9.00 Fair CLR 80.6 75.2 84% 86 29.93 0.0
31 20:15 SW 5 10.00 Fair CLR 84.2 75.2 74% 92 29.92 0.0
31 19:55 SW 3 10.00 A Few Clouds FEW120 84.2 75.2 74% 92 29.92 0.0
31 19:40 SW 3 10.00 Partly Cloudy SCT120 86 75.2 70% 95 29.92 0.0
31 19:15 S 5 6.00 Fair with Haze CLR 87.8 75.2 66% 98 29.91 0.0
31 18:35 SW 5 9.00 Fair CLR 89.6 73.4 59% 98 29.91 0.0
31 18:15 SW 5 10.00 Fair CLR 91.4 73.4 56% 100 29.91 0.0
31 17:55 SW 6 10.00 Fair CLR 91.4 73.4 56% 100 29.91 0.0
31 17:35 SW 8 10.00 Fair CLR 91.4 73.4 56% 100 29.91 0.0
31 17:15 SW 7 10.00 Fair CLR 91.4 71.6 52% 99 29.91 0.0
31 16:55 SW 9 9.00 Fair CLR 91.4 71.6 52% 99 29.91 0.0
31 16:35 SW 8 G 14 10.00 Fair CLR 91.4 71.6 52% 99 29.91 0.0
31 16:15 SW 8 10.00 Fair CLR 91.4 71.6 52% 99 29.91 0.0
31 15:55 SW 8 10.00 Fair CLR 91.4 73.4 56% 100 29.91 0.0
31 15:35 SW 10 10.00 Fair CLR 91.4 73.4 56% 100 29.92 0.0
31 15:15 SW 6 10.00 Fair CLR 91.4 71.6 52% 99 29.91 0.0
31 14:55 SW 6 10.00 Fair CLR 89.6 73.4 59% 98 29.92 0.0
31 14:35 S 9 10.00 Fair CLR 89.6 73.4 59% 98 29.91 0.0
31 14:15 SW 9 8.00 Fair CLR 89.6 73.4 59% 98 29.92 0.0
31 13:55 SW 9 10.00 Fair CLR 87.8 73.4 62% 96 29.93 0.0
31 13:35 SW 9 10.00 Fair CLR 87.8 73.4 62% 96 29.92 0.0
31 13:15 S 8 9.00 Fair CLR 87.8 73.4 62% 96 29.92 0.0
31 12:55 SW 7 10.00 Fair CLR 87.8 71.6 59% 94 29.92 0.0
31 12:35 SW 9 10.00 Fair CLR 86 71.6 62% 92 29.92 0.0
31 12:15 S 9 10.00 Fair CLR 84.2 71.6 66% 90 29.91 0.0
31 11:55 S 6 10.00 Fair CLR 84.2 71.6 66% 90 29.92 0.0
31 11:35 SW 8 10.00 Fair CLR 84.2 69.8 62% 88 29.92 0.0
31 11:15 SW 8 G 14 10.00 Fair CLR 82.4 68 62% 85 29.93 0.0
31 10:55 SW 8 10.00 Fair CLR 82.4 68 62% 85 29.92 0.0
31 10:35 SW 12 G 18 10.00 Fair CLR 82.4 68 62% 85 29.92 0.0
31 10:15 SW 15 10.00 Fair CLR 82.4 66.2 58% 85 29.91 0.0
31 09:55 SW 13 10.00 Fair CLR 80.6 66.2 62% 83 29.91 0.0
31 09:35 SW 12 G 17 10.00 Fair CLR 78.8 66.2 65% 81 29.91 0.0
31 09:15 SW 12 10.00 Fair CLR 78.8 66.2 65% 81 29.9 0.0
31 08:55 SW 13 10.00 Fair CLR 77 66.2 69% 79 29.9 0.0
31 08:35 SW 10 G 16 10.00 Fair CLR 77 64.4 65% 79 29.9 0.0
31 08:15 SW 13 G 18 10.00 Fair CLR 77 64.4 65% 79 29.89 0.0
31 07:55 S 12 G 18 10.00 Fair CLR 75.2 64.4 69% 77 29.89 0.0
31 07:35 SW 14 10.00 Fair CLR 75.2 64.4 69% 77 29.88 0.0
31 07:15 S 15 10.00 Fair CLR 75.2 64.4 69% 77 29.87 0.0
31 06:55 S 14 10.00 Fair CLR 73.4 64.4 74% 29.87 0.0
31 06:35 S 14 10.00 Fair CLR 73.4 64.4 74% 29.86 0.0
31 06:15 S 13 10.00 Fair CLR 73.4 64.4 74% 29.86 0.0
31 05:55 S 15 10.00 Fair CLR 73.4 64.4 74% 29.86 0.0
31 05:35 S 13 10.00 Fair CLR 73.4 64.4 74% 29.85 0.0
31 05:15 S 12 G 17 10.00 Fair CLR 73.4 64.4 74% 29.85 0.0
31 04:55 S 12 10.00 Fair CLR 75.2 64.4 69% 77 29.86 0.0
31 04:35 S 13 10.00 Fair CLR 75.2 64.4 69% 77 29.86 0.0
31 04:15 S 12 10.00 Fair CLR 75.2 64.4 69% 77 29.85 0.0
31 03:55 S 12 10.00 Fair CLR 75.2 64.4 69% 77 29.86 0.0
31 03:35 S 14 10.00 Fair CLR 75.2 64.4 69% 77 29.85 0.0
31 03:15 S 10 10.00 Fair CLR 75.2 66.2 74% 77 29.85 0.0
31 02:55 S 10 10.00 Fair CLR 75.2 66.2 74% 77 29.85 0.0
31 02:35 S 10 10.00 Fair CLR 75.2 66.2 74% 77 29.86 0.0
31 02:15 S 10 10.00 Fair CLR 75.2 66.2 74% 77 29.86 0.0
31 01:55 S 10 G 16 10.00 Fair CLR 77 66.2 69% 79 29.86 0.0
31 01:35 S 12 10.00 Fair CLR 77 66.2 69% 79 29.86 0.0
31 01:15 S 12 10.00 Fair CLR 77 66.2 69% 79 29.86 0.0
31 00:55 S 12 10.00 Fair CLR 77 68 74% 79 29.86 0.0
31 00:35 S 13 10.00 Fair CLR 77 68 74% 79 29.86 0.0
31 00:15 S 12 G 17 10.00 Fair CLR 78.8 68 70% 81 29.86 0.0
30 23:55 S 12 10.00 Fair CLR 78.8 68 70% 81 29.86 0.0
30 23:35 S 12 G 20 10.00 Fair CLR 78.8 68 70% 81 29.85 0.0
30 23:15 S 13 10.00 Fair CLR 80.6 68 66% 83 29.85 0.0
30 22:55 S 12 10.00 Fair CLR 80.6 68 66% 83 29.86 0.0
30 22:35 S 12 10.00 Fair CLR 80.6 68 66% 83 29.86 0.0
30 22:15 S 12 10.00 Fair CLR 78.8 68 70% 81 29.86 0.0
30 21:55 S 10 10.00 Fair CLR 78.8 69.8 74% 81 29.86 0.0
30 21:35 S 10 10.00 Fair CLR 80.6 69.8 70% 84 29.86 0.0
30 21:15 S 12 10.00 Fair CLR 80.6 69.8 70% 84 29.85 0.0
30 20:55 S 12 10.00 Fair CLR 80.6 69.8 70% 84 29.85 0.0
30 20:35 S 10 10.00 Fair CLR 80.6 71.6 74% 85 29.84 0.0
30 20:15 S 12 10.00 Fair CLR 80.6 71.6 74% 85 29.84 0.0
30 19:55 S 9 10.00 Fair CLR 80.6 71.6 74% 85 29.84 0.0
30 19:35 S 9 10.00 Fair CLR 82.4 73.4 74% 88 29.84 0.0
30 19:15 S 7 10.00 Fair CLR 82.4 75.2 79% 89 29.84 0.0
30 18:55 S 7 10.00 Fair CLR 84.2 75.2 74% 92 29.84 0.0
30 18:35 S 7 10.00 Fair CLR 84.2 73.4 70% 91 29.84 0.0
30 18:15 S 9 10.00 Fair CLR 86 73.4 66% 93 29.83 0.0
30 17:55 S 9 10.00 Fair CLR 86 73.4 66% 93 29.83 0.0
30 17:35 S 7 10.00 Fair CLR 84.2 73.4 70% 91 29.83 0.0
30 17:15 S 10 10.00 Fair CLR 86 73.4 66% 93 29.83 0.0
30 16:55 S 12 G 18 10.00 Fair CLR 86 71.6 62% 92 29.83 0.0
30 16:35 S 9 G 15 10.00 Fair CLR 87.8 75.2 66% 98 29.83 0.0
30 16:15 S 12 10.00 Fair CLR 86 73.4 66% 93 29.83 0.0
30 15:55 S 10 10.00 Fair CLR 86 75.2 70% 95 29.84 0.0
30 15:35 S 10 10.00 Fair CLR 84.2 73.4 70% 91 29.84 0.0
30 15:15 SE 9 10.00 Fair CLR 82.4 73.4 74% 88 29.85 0.0
30 14:55 S 9 G 15 10.00 Fair CLR 82.4 71.6 70% 87 29.86 0.0
30 14:35 S 10 10.00 Fair CLR 84.2 71.6 66% 90 29.87 0.0
30 14:15 S 9 G 16 10.00 Fair CLR 80.6 69.8 70% 84 29.87 0.0
30 13:55 S 12 10.00 Fair CLR 80.6 69.8 70% 84 29.87 0.0
30 13:35 S 13 10.00 Fair CLR 78.8 69.8 74% 81 29.87 0.0
30 13:15 S 14 G 20 10.00 Fair CLR 80.6 69.8 70% 84 29.87 0.0
30 12:55 S 12 10.00 Fair CLR 80.6 69.8 70% 84 29.88 0.0 0.01
30 12:35 S 12 10.00 Fair CLR 78.8 69.8 74% 81 29.89 0.0
30 12:15 S 8 10.00 Fair CLR 78.8 69.8 74% 81 29.88 0.0
30 11:55 S 8 10.00 Fair CLR 75.2 69.8 83% 75 29.89 0.0
30 11:35 S 10 10.00 Fair CLR 73.4 68 83% 29.89 0.0
30 11:15 S 10 10.00 Fair CLR 71.6 68 88% 29.89 0.0
30 10:55 S 9 10.00 Fair CLR 69.8 68 94% 29.89 0.0 0.01
30 10:35 S 10 10.00 Light Drizzle FEW049 FEW055 SCT110 69.8 66.2 88% 29.9 0.0
30 10:15 S 12 6.00 Light Drizzle FEW032 FEW049 SCT060 69.8 66.2 88% 29.91 0.0
30 09:55 S 16 9.00 Light Rain SCT048 BKN065 BKN085 71.6 66.2 83% 29.9 0.0 0.03
30 09:35 S 17 7.00 Light Rain FEW037 BKN049 OVC080 71.6 66.2 83% 29.89 0.0
30 09:15 S 14 G 24 3.00 Light Rain SCT035 BKN075 OVC095 73.4 66.2 78% 29.89 0.0
30 08:55 SW 21 G 28 6.00 Mostly Cloudy with Haze and Breezy FEW034 SCT070 BKN120 71.6 64.4 78% 29.89 0.0 0.03
30 08:35 SW 16 G 26 10.00 Partly Cloudy SCT110 73.4 64.4 74% 29.89 0.0
30 08:15 SW 18 G 25 10.00 A Few Clouds FEW110 73.4 64.4 74% 29.9 0.0
30 07:55 SW 13 9.00 Partly Cloudy SCT110 75.2 62.6 65% 77 29.9 0.0
30 07:35 SW 13 10.00 A Few Clouds FEW110 75.2 62.6 65% 77 29.89 0.0
30 07:15 S 13 10.00 Fair CLR 75.2 62.6 65% 77 29.87 0.0
30 06:55 S 13 10.00 Fair CLR 75.2 62.6 65% 77 29.87 0.0
30 06:35 S 14 10.00 Partly Cloudy SCT110 75.2 62.6 65% 77 29.86 0.0
30 06:15 S 13 G 21 10.00 Mostly Cloudy BKN110 75.2 62.6 65% 77 29.87 0.0
30 05:55 S 14 10.00 Partly Cloudy FEW060 FEW080 SCT100 75.2 62.6 65% 77 29.87 0.0
30 05:35 S 14 10.00 A Few Clouds FEW038 FEW050 FEW080 75.2 62.6 65% 77 29.88 0.0
30 05:15 S 14 G 20 10.00 Mostly Cloudy FEW025 SCT080 BKN110 73.4 62.6 69% 29.88 0.0
30 04:55 S 13 G 20 10.00 A Few Clouds FEW110 75.2 62.6 65% 77 29.88 0.0
30 04:35 S 13 G 18 10.00 Fair CLR 73.4 62.6 69% 29.88 0.0
30 04:15 S 13 10.00 Fair CLR 75.2 62.6 65% 77 29.88 0.0
30 03:55 S 15 G 23 10.00 Fair CLR 75.2 64.4 69% 77 29.87 0.0
30 03:35 S 14 G 21 10.00 Fair CLR 73.4 64.4 74% 29.87 0.0
30 03:15 S 16 G 23 10.00 Fair CLR 75.2 64.4 69% 77 29.87 0.0
30 02:55 S 15 10.00 A Few Clouds FEW030 FEW036 75.2 64.4 69% 77 29.87 0.0
30 02:35 S 15 10.00 A Few Clouds FEW036 75.2 64.4 69% 77 29.87 0.0
30 02:15 S 15 G 22 10.00 A Few Clouds FEW035 75.2 64.4 69% 77 29.87 0.0
30 01:55 S 14 10.00 Fair CLR 75.2 64.4 69% 77 29.87 0.0
30 01:35 S 16 10.00 Fair CLR 75.2 64.4 69% 77 29.88 0.0
30 01:15 S 14 10.00 Fair CLR 75.2 66.2 74% 77 29.88 0.0
30 00:55 S 14 10.00 Fair CLR 75.2 66.2 74% 77 29.88 0.0
30 00:35 S 14 G 22 10.00 Fair CLR 75.2 66.2 74% 77 29.88 0.0
30 00:15 S 14 G 21 10.00 Fair CLR 75.2 66.2 74% 77 29.88 0.0
29 23:55 S 16 G 23 10.00 A Few Clouds FEW033 FEW041 77 66.2 69% 79 29.88 0.0
29 23:35 S 16 G 22 10.00 A Few Clouds FEW032 FEW040 77 66.2 69% 79 29.87 0.0
29 23:15 S 15 G 23 10.00 Fair CLR 77 66.2 69% 79 29.87 0.0
29 22:55 S 14 G 21 10.00 Fair CLR 77 66.2 69% 79 29.88 0.0
29 22:35 S 14 G 20 10.00 Fair CLR 77 68 74% 79 29.88 0.0
29 22:15 S 13 10.00 Fair CLR 77 68 74% 79 29.88 0.0
29 21:55 S 14 G 20 10.00 Fair CLR 77 68 74% 79 29.88 0.0
29 21:35 S 12 G 20 10.00 Fair CLR 78.8 68 70% 81 29.88 0.0
29 21:15 S 15 10.00 Fair CLR 78.8 68 70% 81 29.87 0.0
29 20:55 S 14 G 22 10.00 Fair CLR 78.8 68 70% 81 29.86 0.0
29 20:35 S 13 G 20 10.00 Fair CLR 78.8 68 70% 81 29.85 0.0
29 20:15 S 12 10.00 Fair CLR 78.8 68 70% 81 29.85 0.0
29 19:55 S 13 G 20 10.00 Fair CLR 78.8 68 70% 81 29.85 0.0
29 19:35 S 14 10.00 Fair CLR 80.6 68 66% 83 29.85 0.0
29 19:15 S 14 9.00 Fair CLR 80.6 68 66% 83 29.85 0.0
29 18:55 S 13 G 22 9.00 Fair CLR 80.6 69.8 70% 84 29.86 0.0
29 18:35 S 14 G 20 10.00 Fair CLR 80.6 69.8 70% 84 29.86 0.0
29 18:15 S 14 10.00 Fair CLR 80.6 69.8 70% 84 29.86 0.0
29 17:55 S 13 G 20 10.00 Fair CLR 80.6 69.8 70% 84 29.87 0.0
29 17:35 S 14 G 22 9.00 Fair CLR 80.6 69.8 70% 84 29.87 0.0
29 17:15 S 18 10.00 Fair CLR 82.4 69.8 66% 86 29.88 0.0
29 16:55 S 15 G 24 10.00 Fair CLR 82.4 69.8 66% 86 29.88 0.0
29 16:35 S 17 10.00 Fair CLR 84.2 69.8 62% 88 29.88 0.0
29 16:15 S 20 G 26 9.00 Fair CLR 82.4 69.8 66% 86 29.88 0.0
29 15:55 S 15 G 23 9.00 Fair CLR 82.4 71.6 70% 87 29.89 0.0
Date Time (cdt) Wind (mph) Vis. (mi.) Weather Sky Cond. Air Dwpt Max. Min. Relative Humidity Wind Chill (°F) Heat Index (°F) altimeter (in) sea level (mb) 1 hr 3 hr 6 hr
6 hour
Temperature (ºF) Pressure Precipitation (in)